sensor_id;sensor_type;location;lat;lon;timestamp;P1;durP1;ratioP1;P2;durP2;ratioP2
75496;SDS011;64074;47.540;19.072;2023-03-01T00:00:38;26.10;;;13.67;;
75496;SDS011;64074;47.540;19.072;2023-03-01T00:03:42;26.83;;;13.95;;
75496;SDS011;64074;47.540;19.072;2023-03-01T00:06:46;31.52;;;13.52;;
75496;SDS011;64074;47.540;19.072;2023-03-01T00:09:49;25.75;;;13.80;;
75496;SDS011;64074;47.540;19.072;2023-03-01T00:12:53;28.23;;;13.80;;
75496;SDS011;64074;47.540;19.072;2023-03-01T00:15:55;25.93;;;13.30;;
75496;SDS011;64074;47.540;19.072;2023-03-01T00:18:58;31.17;;;14.07;;
75496;SDS011;64074;47.540;19.072;2023-03-01T00:22:01;26.08;;;13.18;;
75496;SDS011;64074;47.540;19.072;2023-03-01T00:25:05;27.38;;;13.65;;
75496;SDS011;64074;47.540;19.072;2023-03-01T00:28:08;26.37;;;13.23;;
75496;SDS011;64074;47.540;19.072;2023-03-01T00:31:13;27.17;;;13.00;;
75496;SDS011;64074;47.540;19.072;2023-03-01T00:34:19;24.92;;;12.73;;
75496;SDS011;64074;47.540;19.072;2023-03-01T00:37:23;24.67;;;12.27;;
75496;SDS011;64074;47.540;19.072;2023-03-01T00:40:27;22.15;;;12.05;;
75496;SDS011;64074;47.540;19.072;2023-03-01T00:43:31;22.37;;;11.90;;
75496;SDS011;64074;47.540;19.072;2023-03-01T00:46:38;22.73;;;11.63;;
75496;SDS011;64074;47.540;19.072;2023-03-01T00:49:42;22.27;;;11.48;;
75496;SDS011;64074;47.540;19.072;2023-03-01T00:52:45;22.92;;;10.95;;
75496;SDS011;64074;47.540;19.072;2023-03-01T00:55:47;24.27;;;11.73;;
75496;SDS011;64074;47.540;19.072;2023-03-01T00:58:52;21.37;;;11.00;;
75496;SDS011;64074;47.540;19.072;2023-03-01T01:01:55;21.50;;;10.90;;
75496;SDS011;64074;47.540;19.072;2023-03-01T01:04:58;19.48;;;10.15;;
75496;SDS011;64074;47.540;19.072;2023-03-01T01:08:01;19.85;;;10.90;;
75496;SDS011;64074;47.540;19.072;2023-03-01T01:11:05;19.98;;;10.27;;
75496;SDS011;64074;47.540;19.072;2023-03-01T01:14:11;20.43;;;10.67;;
75496;SDS011;64074;47.540;19.072;2023-03-01T01:17:14;22.40;;;11.40;;
75496;SDS011;64074;47.540;19.072;2023-03-01T01:20:17;20.00;;;9.68;;
75496;SDS011;64074;47.540;19.072;2023-03-01T01:23:20;18.17;;;9.40;;
75496;SDS011;64074;47.540;19.072;2023-03-01T01:26:27;21.05;;;10.50;;
75496;SDS011;64074;47.540;19.072;2023-03-01T01:29:32;22.30;;;10.70;;
75496;SDS011;64074;47.540;19.072;2023-03-01T01:32:36;21.53;;;10.17;;
75496;SDS011;64074;47.540;19.072;2023-03-01T01:35:39;22.42;;;11.02;;
75496;SDS011;64074;47.540;19.072;2023-03-01T01:38:42;20.88;;;10.30;;
75496;SDS011;64074;47.540;19.072;2023-03-01T01:41:46;23.58;;;10.95;;
75496;SDS011;64074;47.540;19.072;2023-03-01T01:45:15;24.57;;;11.73;;
75496;SDS011;64074;47.540;19.072;2023-03-01T01:48:40;20.23;;;10.03;;
75496;SDS011;64074;47.540;19.072;2023-03-01T01:51:48;20.00;;;9.75;;
75496;SDS011;64074;47.540;19.072;2023-03-01T01:54:57;23.00;;;10.95;;
75496;SDS011;64074;47.540;19.072;2023-03-01T01:58:07;20.25;;;10.35;;
75496;SDS011;64074;47.540;19.072;2023-03-01T02:01:14;21.40;;;10.80;;
75496;SDS011;64074;47.540;19.072;2023-03-01T02:04:17;21.63;;;10.30;;
75496;SDS011;64074;47.540;19.072;2023-03-01T02:07:22;20.55;;;9.93;;
75496;SDS011;64074;47.540;19.072;2023-03-01T02:10:26;17.83;;;8.98;;
75496;SDS011;64074;47.540;19.072;2023-03-01T02:13:30;17.95;;;9.00;;
75496;SDS011;64074;47.540;19.072;2023-03-01T02:16:34;18.47;;;9.47;;
75496;SDS011;64074;47.540;19.072;2023-03-01T02:19:43;20.70;;;9.67;;
75496;SDS011;64074;47.540;19.072;2023-03-01T02:23:11;17.77;;;9.20;;
75496;SDS011;64074;47.540;19.072;2023-03-01T02:29:28;20.20;;;10.13;;
75496;SDS011;64074;47.540;19.072;2023-03-01T02:32:30;19.93;;;10.57;;
75496;SDS011;64074;47.540;19.072;2023-03-01T02:35:35;19.80;;;10.43;;
75496;SDS011;64074;47.540;19.072;2023-03-01T02:38:41;20.52;;;10.70;;
75496;SDS011;64074;47.540;19.072;2023-03-01T02:41:49;20.92;;;10.88;;
75496;SDS011;64074;47.540;19.072;2023-03-01T02:44:55;19.83;;;10.73;;
75496;SDS011;64074;47.540;19.072;2023-03-01T02:47:59;20.00;;;9.67;;
75496;SDS011;64074;47.540;19.072;2023-03-01T02:54:17;21.95;;;10.80;;
75496;SDS011;64074;47.540;19.072;2023-03-01T02:57:24;19.65;;;10.32;;
75496;SDS011;64074;47.540;19.072;2023-03-01T03:00:41;22.77;;;11.05;;
75496;SDS011;64074;47.540;19.072;2023-03-01T03:03:51;21.40;;;10.57;;
75496;SDS011;64074;47.540;19.072;2023-03-01T03:06:53;21.37;;;10.70;;
75496;SDS011;64074;47.540;19.072;2023-03-01T03:09:56;24.15;;;10.93;;
75496;SDS011;64074;47.540;19.072;2023-03-01T03:13:01;21.42;;;10.25;;
75496;SDS011;64074;47.540;19.072;2023-03-01T03:16:06;20.77;;;10.65;;
75496;SDS011;64074;47.540;19.072;2023-03-01T03:19:09;21.67;;;10.80;;
75496;SDS011;64074;47.540;19.072;2023-03-01T03:22:12;23.20;;;10.87;;
75496;SDS011;64074;47.540;19.072;2023-03-01T03:25:15;21.20;;;10.45;;
75496;SDS011;64074;47.540;19.072;2023-03-01T03:28:18;20.75;;;10.48;;
75496;SDS011;64074;47.540;19.072;2023-03-01T03:31:21;19.23;;;9.50;;
75496;SDS011;64074;47.540;19.072;2023-03-01T03:34:25;21.93;;;10.53;;
75496;SDS011;64074;47.540;19.072;2023-03-01T03:37:28;20.27;;;10.03;;
75496;SDS011;64074;47.540;19.072;2023-03-01T03:40:52;19.95;;;10.02;;
75496;SDS011;64074;47.540;19.072;2023-03-01T03:44:09;19.80;;;10.27;;
75496;SDS011;64074;47.540;19.072;2023-03-01T03:47:11;20.45;;;9.88;;
75496;SDS011;64074;47.540;19.072;2023-03-01T03:50:17;21.20;;;10.57;;
75496;SDS011;64074;47.540;19.072;2023-03-01T03:53:21;18.57;;;10.17;;
75496;SDS011;64074;47.540;19.072;2023-03-01T03:56:25;19.75;;;9.63;;
75496;SDS011;64074;47.540;19.072;2023-03-01T03:59:30;22.50;;;10.77;;
75496;SDS011;64074;47.540;19.072;2023-03-01T04:02:32;21.00;;;10.07;;
75496;SDS011;64074;47.540;19.072;2023-03-01T04:05:36;18.97;;;9.67;;
75496;SDS011;64074;47.540;19.072;2023-03-01T04:08:40;21.87;;;10.93;;
75496;SDS011;64074;47.540;19.072;2023-03-01T04:11:43;19.70;;;10.07;;
75496;SDS011;64074;47.540;19.072;2023-03-01T04:14:46;21.77;;;10.70;;
75496;SDS011;64074;47.540;19.072;2023-03-01T04:17:51;20.25;;;10.25;;
75496;SDS011;64074;47.540;19.072;2023-03-01T04:20:55;20.30;;;9.80;;
75496;SDS011;64074;47.540;19.072;2023-03-01T04:23:58;19.63;;;9.70;;
75496;SDS011;64074;47.540;19.072;2023-03-01T04:27:01;20.63;;;9.65;;
75496;SDS011;64074;47.540;19.072;2023-03-01T04:30:04;18.85;;;8.93;;
75496;SDS011;64074;47.540;19.072;2023-03-01T04:33:09;19.50;;;9.77;;
75496;SDS011;64074;47.540;19.072;2023-03-01T04:36:14;20.67;;;9.37;;
75496;SDS011;64074;47.540;19.072;2023-03-01T04:39:18;18.43;;;9.63;;
75496;SDS011;64074;47.540;19.072;2023-03-01T04:42:22;20.58;;;9.45;;
75496;SDS011;64074;47.540;19.072;2023-03-01T04:45:25;21.15;;;9.75;;
75496;SDS011;64074;47.540;19.072;2023-03-01T04:48:28;19.05;;;10.00;;
75496;SDS011;64074;47.540;19.072;2023-03-01T04:51:31;17.80;;;8.90;;
75496;SDS011;64074;47.540;19.072;2023-03-01T04:54:36;20.43;;;9.50;;
75496;SDS011;64074;47.540;19.072;2023-03-01T04:57:39;19.23;;;9.30;;
75496;SDS011;64074;47.540;19.072;2023-03-01T05:00:43;19.50;;;9.27;;
75496;SDS011;64074;47.540;19.072;2023-03-01T05:03:48;19.55;;;9.88;;
75496;SDS011;64074;47.540;19.072;2023-03-01T05:06:52;18.03;;;9.27;;
75496;SDS011;64074;47.540;19.072;2023-03-01T05:09:55;19.10;;;9.50;;
75496;SDS011;64074;47.540;19.072;2023-03-01T05:12:59;21.55;;;11.30;;
75496;SDS011;64074;47.540;19.072;2023-03-01T05:16:03;21.00;;;9.82;;
75496;SDS011;64074;47.540;19.072;2023-03-01T05:19:06;18.25;;;9.77;;
75496;SDS011;64074;47.540;19.072;2023-03-01T05:22:18;19.03;;;9.27;;
75496;SDS011;64074;47.540;19.072;2023-03-01T05:25:21;20.47;;;9.33;;
75496;SDS011;64074;47.540;19.072;2023-03-01T05:28:25;18.05;;;9.18;;
75496;SDS011;64074;47.540;19.072;2023-03-01T05:31:28;20.38;;;9.40;;
75496;SDS011;64074;47.540;19.072;2023-03-01T05:34:33;19.73;;;9.13;;
75496;SDS011;64074;47.540;19.072;2023-03-01T05:37:39;19.20;;;10.00;;
75496;SDS011;64074;47.540;19.072;2023-03-01T05:40:45;20.80;;;10.67;;
75496;SDS011;64074;47.540;19.072;2023-03-01T05:43:48;22.48;;;10.38;;
75496;SDS011;64074;47.540;19.072;2023-03-01T05:46:51;19.33;;;10.52;;
75496;SDS011;64074;47.540;19.072;2023-03-01T05:49:55;21.55;;;10.82;;
75496;SDS011;64074;47.540;19.072;2023-03-01T05:53:11;21.30;;;9.40;;
75496;SDS011;64074;47.540;19.072;2023-03-01T05:56:15;19.87;;;9.80;;
75496;SDS011;64074;47.540;19.072;2023-03-01T05:59:18;19.38;;;10.07;;
75496;SDS011;64074;47.540;19.072;2023-03-01T06:02:21;19.17;;;9.40;;
75496;SDS011;64074;47.540;19.072;2023-03-01T06:05:23;17.98;;;9.35;;
75496;SDS011;64074;47.540;19.072;2023-03-01T06:08:27;20.17;;;10.00;;
75496;SDS011;64074;47.540;19.072;2023-03-01T06:11:30;19.30;;;9.50;;
75496;SDS011;64074;47.540;19.072;2023-03-01T06:14:33;18.83;;;10.05;;
75496;SDS011;64074;47.540;19.072;2023-03-01T06:17:37;19.90;;;10.25;;
75496;SDS011;64074;47.540;19.072;2023-03-01T06:20:44;24.48;;;11.65;;
75496;SDS011;64074;47.540;19.072;2023-03-01T06:23:47;18.27;;;9.17;;
75496;SDS011;64074;47.540;19.072;2023-03-01T06:26:50;18.40;;;9.70;;
75496;SDS011;64074;47.540;19.072;2023-03-01T06:29:55;20.92;;;10.20;;
75496;SDS011;64074;47.540;19.072;2023-03-01T06:32:58;18.83;;;9.35;;
75496;SDS011;64074;47.540;19.072;2023-03-01T06:36:04;20.25;;;9.88;;
75496;SDS011;64074;47.540;19.072;2023-03-01T06:39:10;19.67;;;9.73;;
75496;SDS011;64074;47.540;19.072;2023-03-01T06:46:05;20.30;;;9.20;;
75496;SDS011;64074;47.540;19.072;2023-03-01T06:49:10;19.52;;;10.57;;
75496;SDS011;64074;47.540;19.072;2023-03-01T06:52:13;20.33;;;9.77;;
75496;SDS011;64074;47.540;19.072;2023-03-01T06:55:19;22.03;;;9.90;;
75496;SDS011;64074;47.540;19.072;2023-03-01T06:58:41;20.20;;;9.60;;
75496;SDS011;64074;47.540;19.072;2023-03-01T07:02:26;23.52;;;10.27;;
75496;SDS011;64074;47.540;19.072;2023-03-01T07:05:29;21.02;;;10.77;;
75496;SDS011;64074;47.540;19.072;2023-03-01T07:08:32;20.92;;;10.18;;
75496;SDS011;64074;47.540;19.072;2023-03-01T07:11:35;19.50;;;9.37;;
75496;SDS011;64074;47.540;19.072;2023-03-01T07:14:38;23.33;;;11.27;;
75496;SDS011;64074;47.540;19.072;2023-03-01T07:17:41;22.20;;;10.27;;
75496;SDS011;64074;47.540;19.072;2023-03-01T07:20:48;20.65;;;10.15;;
75496;SDS011;64074;47.540;19.072;2023-03-01T07:23:51;20.90;;;10.65;;
75496;SDS011;64074;47.540;19.072;2023-03-01T07:26:54;24.83;;;11.63;;
75496;SDS011;64074;47.540;19.072;2023-03-01T07:29:57;24.23;;;11.27;;
75496;SDS011;64074;47.540;19.072;2023-03-01T07:33:00;20.83;;;10.73;;
75496;SDS011;64074;47.540;19.072;2023-03-01T07:36:04;20.95;;;10.50;;
75496;SDS011;64074;47.540;19.072;2023-03-01T07:39:15;27.08;;;11.68;;
75496;SDS011;64074;47.540;19.072;2023-03-01T07:42:21;22.70;;;12.10;;
75496;SDS011;64074;47.540;19.072;2023-03-01T07:45:25;23.40;;;10.77;;
75496;SDS011;64074;47.540;19.072;2023-03-01T07:48:29;21.05;;;10.80;;
75496;SDS011;64074;47.540;19.072;2023-03-01T07:51:36;19.85;;;10.20;;
75496;SDS011;64074;47.540;19.072;2023-03-01T07:54:57;25.15;;;11.48;;
75496;SDS011;64074;47.540;19.072;2023-03-01T07:58:01;22.60;;;10.90;;
75496;SDS011;64074;47.540;19.072;2023-03-01T08:01:05;23.87;;;10.33;;
75496;SDS011;64074;47.540;19.072;2023-03-01T08:04:10;20.75;;;10.52;;
75496;SDS011;64074;47.540;19.072;2023-03-01T08:07:14;19.63;;;10.18;;
75496;SDS011;64074;47.540;19.072;2023-03-01T08:10:18;24.35;;;10.05;;
75496;SDS011;64074;47.540;19.072;2023-03-01T08:13:23;21.67;;;10.00;;
75496;SDS011;64074;47.540;19.072;2023-03-01T08:16:38;22.60;;;10.53;;
75496;SDS011;64074;47.540;19.072;2023-03-01T08:19:44;22.92;;;9.43;;
75496;SDS011;64074;47.540;19.072;2023-03-01T08:22:48;18.77;;;9.43;;
75496;SDS011;64074;47.540;19.072;2023-03-01T08:25:51;17.63;;;8.98;;
75496;SDS011;64074;47.540;19.072;2023-03-01T08:28:55;20.67;;;10.17;;
75496;SDS011;64074;47.540;19.072;2023-03-01T08:31:58;14.50;;;8.57;;
75496;SDS011;64074;47.540;19.072;2023-03-01T08:35:02;19.35;;;9.73;;
75496;SDS011;64074;47.540;19.072;2023-03-01T08:38:06;16.38;;;8.75;;
75496;SDS011;64074;47.540;19.072;2023-03-01T08:41:09;14.90;;;8.30;;
75496;SDS011;64074;47.540;19.072;2023-03-01T08:44:13;16.07;;;8.87;;
75496;SDS011;64074;47.540;19.072;2023-03-01T08:47:33;30.53;;;13.83;;
75496;SDS011;64074;47.540;19.072;2023-03-01T08:50:44;19.48;;;9.40;;
75496;SDS011;64074;47.540;19.072;2023-03-01T08:54:01;17.88;;;9.60;;
75496;SDS011;64074;47.540;19.072;2023-03-01T08:57:03;16.05;;;8.70;;
75496;SDS011;64074;47.540;19.072;2023-03-01T09:00:07;14.80;;;8.43;;
75496;SDS011;64074;47.540;19.072;2023-03-01T09:03:12;17.53;;;9.20;;
75496;SDS011;64074;47.540;19.072;2023-03-01T09:06:16;18.23;;;9.07;;
75496;SDS011;64074;47.540;19.072;2023-03-01T09:09:19;16.92;;;9.00;;
75496;SDS011;64074;47.540;19.072;2023-03-01T09:12:23;18.08;;;10.15;;
75496;SDS011;64074;47.540;19.072;2023-03-01T09:15:27;18.13;;;9.17;;
75496;SDS011;64074;47.540;19.072;2023-03-01T09:18:30;15.63;;;8.50;;
75496;SDS011;64074;47.540;19.072;2023-03-01T09:21:34;16.60;;;8.55;;
75496;SDS011;64074;47.540;19.072;2023-03-01T09:24:42;16.88;;;8.98;;
75496;SDS011;64074;47.540;19.072;2023-03-01T09:27:46;18.38;;;9.73;;
75496;SDS011;64074;47.540;19.072;2023-03-01T09:30:49;19.13;;;9.73;;
75496;SDS011;64074;47.540;19.072;2023-03-01T09:34:12;18.33;;;9.43;;
75496;SDS011;64074;47.540;19.072;2023-03-01T09:37:47;17.92;;;9.40;;
75496;SDS011;64074;47.540;19.072;2023-03-01T09:41:00;20.02;;;9.40;;
75496;SDS011;64074;47.540;19.072;2023-03-01T09:47:47;21.37;;;10.17;;
75496;SDS011;64074;47.540;19.072;2023-03-01T09:50:54;18.90;;;9.87;;
75496;SDS011;64074;47.540;19.072;2023-03-01T09:53:57;19.38;;;10.45;;
75496;SDS011;64074;47.540;19.072;2023-03-01T09:57:11;20.08;;;9.95;;
75496;SDS011;64074;47.540;19.072;2023-03-01T10:00:42;20.15;;;9.85;;
75496;SDS011;64074;47.540;19.072;2023-03-01T10:10:27;18.13;;;9.55;;
75496;SDS011;64074;47.540;19.072;2023-03-01T10:13:45;19.23;;;9.30;;
75496;SDS011;64074;47.540;19.072;2023-03-01T10:17:00;18.80;;;10.25;;
75496;SDS011;64074;47.540;19.072;2023-03-01T10:20:16;19.77;;;10.63;;
75496;SDS011;64074;47.540;19.072;2023-03-01T10:23:26;20.57;;;10.87;;
75496;SDS011;64074;47.540;19.072;2023-03-01T10:30:22;22.67;;;10.18;;
75496;SDS011;64074;47.540;19.072;2023-03-01T10:33:51;20.00;;;10.65;;
75496;SDS011;64074;47.540;19.072;2023-03-01T10:41:12;20.03;;;10.80;;
75496;SDS011;64074;47.540;19.072;2023-03-01T10:44:42;18.95;;;9.90;;
75496;SDS011;64074;47.540;19.072;2023-03-01T10:47:48;19.52;;;10.00;;
75496;SDS011;64074;47.540;19.072;2023-03-01T10:51:17;17.90;;;10.07;;
75496;SDS011;64074;47.540;19.072;2023-03-01T10:54:26;20.40;;;9.70;;
75496;SDS011;64074;47.540;19.072;2023-03-01T10:57:36;20.13;;;10.10;;
75496;SDS011;64074;47.540;19.072;2023-03-01T11:04:25;19.42;;;10.10;;
75496;SDS011;64074;47.540;19.072;2023-03-01T11:07:21;18.70;;;9.77;;
75496;SDS011;64074;47.540;19.072;2023-03-01T11:10:40;19.07;;;10.20;;
75496;SDS011;64074;47.540;19.072;2023-03-01T11:17:11;17.27;;;10.02;;
75496;SDS011;64074;47.540;19.072;2023-03-01T11:20:31;19.02;;;9.95;;
75496;SDS011;64074;47.540;19.072;2023-03-01T11:23:39;18.17;;;9.43;;
75496;SDS011;64074;47.540;19.072;2023-03-01T11:26:47;17.20;;;9.47;;
75496;SDS011;64074;47.540;19.072;2023-03-01T11:30:07;17.77;;;9.50;;
75496;SDS011;64074;47.540;19.072;2023-03-01T11:37:02;17.23;;;9.38;;
75496;SDS011;64074;47.540;19.072;2023-03-01T11:40:27;19.80;;;10.30;;
75496;SDS011;64074;47.540;19.072;2023-03-01T11:50:45;17.92;;;9.38;;
75496;SDS011;64074;47.540;19.072;2023-03-01T12:07:46;15.75;;;9.10;;
75496;SDS011;64074;47.540;19.072;2023-03-01T12:11:39;13.85;;;7.97;;
75496;SDS011;64074;47.540;19.072;2023-03-01T12:25:20;14.68;;;7.75;;
75496;SDS011;64074;47.540;19.072;2023-03-01T12:28:46;13.80;;;8.02;;
75496;SDS011;64074;47.540;19.072;2023-03-01T12:38:33;11.27;;;7.50;;
75496;SDS011;64074;47.540;19.072;2023-03-01T12:45:54;12.57;;;6.90;;
75496;SDS011;64074;47.540;19.072;2023-03-01T12:53:01;11.17;;;6.33;;
75496;SDS011;64074;47.540;19.072;2023-03-01T12:56:08;14.80;;;7.93;;
75496;SDS011;64074;47.540;19.072;2023-03-01T12:59:19;12.45;;;6.43;;
75496;SDS011;64074;47.540;19.072;2023-03-01T13:06:19;11.73;;;6.85;;
75496;SDS011;64074;47.540;19.072;2023-03-01T13:13:36;11.43;;;5.90;;
75496;SDS011;64074;47.540;19.072;2023-03-01T13:16:40;9.50;;;5.38;;
75496;SDS011;64074;47.540;19.072;2023-03-01T13:19:57;12.35;;;6.13;;
75496;SDS011;64074;47.540;19.072;2023-03-01T13:23:02;9.98;;;5.53;;
75496;SDS011;64074;47.540;19.072;2023-03-01T13:26:14;9.90;;;5.10;;
75496;SDS011;64074;47.540;19.072;2023-03-01T13:29:29;11.07;;;5.27;;
75496;SDS011;64074;47.540;19.072;2023-03-01T13:33:42;9.32;;;5.05;;
75496;SDS011;64074;47.540;19.072;2023-03-01T13:39:39;7.18;;;4.07;;
75496;SDS011;64074;47.540;19.072;2023-03-01T13:42:43;8.80;;;3.73;;
75496;SDS011;64074;47.540;19.072;2023-03-01T13:46:11;8.33;;;3.90;;
75496;SDS011;64074;47.540;19.072;2023-03-01T13:49:23;6.68;;;4.10;;
75496;SDS011;64074;47.540;19.072;2023-03-01T13:52:48;10.25;;;3.70;;
75496;SDS011;64074;47.540;19.072;2023-03-01T13:56:45;9.80;;;3.70;;
75496;SDS011;64074;47.540;19.072;2023-03-01T13:59:37;9.20;;;4.10;;
75496;SDS011;64074;47.540;19.072;2023-03-01T14:03:09;7.03;;;3.80;;
75496;SDS011;64074;47.540;19.072;2023-03-01T14:06:20;6.80;;;4.35;;
75496;SDS011;64074;47.540;19.072;2023-03-01T14:09:28;6.00;;;3.55;;
75496;SDS011;64074;47.540;19.072;2023-03-01T14:16:04;7.50;;;4.00;;
75496;SDS011;64074;47.540;19.072;2023-03-01T14:19:27;11.23;;;4.70;;
75496;SDS011;64074;47.540;19.072;2023-03-01T14:22:36;8.32;;;4.13;;
75496;SDS011;64074;47.540;19.072;2023-03-01T14:25:45;10.85;;;4.50;;
75496;SDS011;64074;47.540;19.072;2023-03-01T14:28:52;8.40;;;3.72;;
75496;SDS011;64074;47.540;19.072;2023-03-01T14:32:01;11.53;;;4.20;;
75496;SDS011;64074;47.540;19.072;2023-03-01T14:35:20;9.37;;;4.30;;
75496;SDS011;64074;47.540;19.072;2023-03-01T14:38:42;6.30;;;3.85;;
75496;SDS011;64074;47.540;19.072;2023-03-01T14:41:47;8.20;;;3.83;;
75496;SDS011;64074;47.540;19.072;2023-03-01T14:44:51;6.85;;;3.88;;
75496;SDS011;64074;47.540;19.072;2023-03-01T14:47:58;6.70;;;3.53;;
75496;SDS011;64074;47.540;19.072;2023-03-01T14:51:06;6.10;;;3.70;;
75496;SDS011;64074;47.540;19.072;2023-03-01T14:54:29;8.25;;;3.58;;
75496;SDS011;64074;47.540;19.072;2023-03-01T14:57:49;7.90;;;3.58;;
75496;SDS011;64074;47.540;19.072;2023-03-01T15:00:56;7.60;;;4.05;;
75496;SDS011;64074;47.540;19.072;2023-03-01T15:04:02;6.67;;;3.57;;
75496;SDS011;64074;47.540;19.072;2023-03-01T15:07:09;17.40;;;5.03;;
75496;SDS011;64074;47.540;19.072;2023-03-01T15:10:27;9.90;;;4.78;;
75496;SDS011;64074;47.540;19.072;2023-03-01T15:13:34;8.18;;;3.97;;
75496;SDS011;64074;47.540;19.072;2023-03-01T15:16:38;7.35;;;3.88;;
75496;SDS011;64074;47.540;19.072;2023-03-01T15:19:45;7.67;;;3.93;;
75496;SDS011;64074;47.540;19.072;2023-03-01T15:22:48;9.83;;;3.80;;
75496;SDS011;64074;47.540;19.072;2023-03-01T15:25:52;7.07;;;3.95;;
75496;SDS011;64074;47.540;19.072;2023-03-01T15:28:59;13.52;;;4.20;;
75496;SDS011;64074;47.540;19.072;2023-03-01T15:32:04;9.73;;;4.40;;
75496;SDS011;64074;47.540;19.072;2023-03-01T15:38:55;8.10;;;3.97;;
75496;SDS011;64074;47.540;19.072;2023-03-01T15:42:01;8.05;;;3.65;;
75496;SDS011;64074;47.540;19.072;2023-03-01T15:45:19;7.85;;;3.72;;
75496;SDS011;64074;47.540;19.072;2023-03-01T15:48:24;8.27;;;4.00;;
75496;SDS011;64074;47.540;19.072;2023-03-01T15:51:35;8.53;;;4.23;;
75496;SDS011;64074;47.540;19.072;2023-03-01T15:54:39;7.80;;;3.90;;
75496;SDS011;64074;47.540;19.072;2023-03-01T15:57:44;9.52;;;3.60;;
75496;SDS011;64074;47.540;19.072;2023-03-01T16:00:49;8.73;;;4.10;;
75496;SDS011;64074;47.540;19.072;2023-03-01T16:04:03;23.10;;;10.95;;
75496;SDS011;64074;47.540;19.072;2023-03-01T16:07:06;14.90;;;5.50;;
75496;SDS011;64074;47.540;19.072;2023-03-01T16:10:10;14.07;;;5.33;;
75496;SDS011;64074;47.540;19.072;2023-03-01T16:13:16;14.55;;;5.50;;
75496;SDS011;64074;47.540;19.072;2023-03-01T16:16:19;12.52;;;4.82;;
75496;SDS011;64074;47.540;19.072;2023-03-01T16:19:24;20.20;;;9.95;;
75496;SDS011;64074;47.540;19.072;2023-03-01T16:22:27;12.90;;;6.73;;
75496;SDS011;64074;47.540;19.072;2023-03-01T16:25:31;17.17;;;8.30;;
75496;SDS011;64074;47.540;19.072;2023-03-01T16:28:35;14.88;;;6.50;;
75496;SDS011;64074;47.540;19.072;2023-03-01T16:31:37;8.07;;;4.40;;
75496;SDS011;64074;47.540;19.072;2023-03-01T16:34:41;14.25;;;5.57;;
75496;SDS011;64074;47.540;19.072;2023-03-01T16:37:43;10.67;;;5.43;;
75496;SDS011;64074;47.540;19.072;2023-03-01T16:40:47;9.27;;;5.00;;
75496;SDS011;64074;47.540;19.072;2023-03-01T16:43:55;9.07;;;4.60;;
75496;SDS011;64074;47.540;19.072;2023-03-01T16:46:59;9.18;;;4.60;;
75496;SDS011;64074;47.540;19.072;2023-03-01T16:50:02;10.25;;;5.05;;
75496;SDS011;64074;47.540;19.072;2023-03-01T16:53:06;13.30;;;4.70;;
75496;SDS011;64074;47.540;19.072;2023-03-01T16:56:10;12.17;;;4.50;;
75496;SDS011;64074;47.540;19.072;2023-03-01T16:59:14;8.50;;;4.30;;
75496;SDS011;64074;47.540;19.072;2023-03-01T17:02:17;11.70;;;4.90;;
75496;SDS011;64074;47.540;19.072;2023-03-01T17:05:22;12.50;;;5.13;;
75496;SDS011;64074;47.540;19.072;2023-03-01T17:08:26;12.50;;;4.90;;
75496;SDS011;64074;47.540;19.072;2023-03-01T17:11:30;12.03;;;5.03;;
75496;SDS011;64074;47.540;19.072;2023-03-01T17:14:34;13.10;;;5.40;;
75496;SDS011;64074;47.540;19.072;2023-03-01T17:17:37;10.65;;;5.13;;
75496;SDS011;64074;47.540;19.072;2023-03-01T17:20:42;12.18;;;4.85;;
75496;SDS011;64074;47.540;19.072;2023-03-01T17:23:47;12.63;;;5.87;;
75496;SDS011;64074;47.540;19.072;2023-03-01T17:26:51;14.30;;;6.63;;
75496;SDS011;64074;47.540;19.072;2023-03-01T17:29:54;15.63;;;5.63;;
75496;SDS011;64074;47.540;19.072;2023-03-01T17:32:58;13.40;;;6.00;;
75496;SDS011;64074;47.540;19.072;2023-03-01T17:36:01;13.57;;;5.85;;
75496;SDS011;64074;47.540;19.072;2023-03-01T17:39:05;12.87;;;6.13;;
75496;SDS011;64074;47.540;19.072;2023-03-01T17:42:09;13.77;;;5.67;;
75496;SDS011;64074;47.540;19.072;2023-03-01T17:45:13;19.05;;;7.43;;
75496;SDS011;64074;47.540;19.072;2023-03-01T17:48:16;12.90;;;7.13;;
75496;SDS011;64074;47.540;19.072;2023-03-01T17:51:19;14.73;;;7.47;;
75496;SDS011;64074;47.540;19.072;2023-03-01T17:54:22;14.40;;;7.20;;
75496;SDS011;64074;47.540;19.072;2023-03-01T17:57:25;12.17;;;7.43;;
75496;SDS011;64074;47.540;19.072;2023-03-01T18:00:29;15.27;;;8.15;;
75496;SDS011;64074;47.540;19.072;2023-03-01T18:03:33;20.45;;;8.38;;
75496;SDS011;64074;47.540;19.072;2023-03-01T18:06:36;21.73;;;7.90;;
75496;SDS011;64074;47.540;19.072;2023-03-01T18:09:39;17.87;;;8.03;;
75496;SDS011;64074;47.540;19.072;2023-03-01T18:12:42;16.23;;;7.03;;
75496;SDS011;64074;47.540;19.072;2023-03-01T18:15:45;15.30;;;8.30;;
75496;SDS011;64074;47.540;19.072;2023-03-01T18:18:52;23.77;;;12.18;;
75496;SDS011;64074;47.540;19.072;2023-03-01T18:21:57;19.15;;;10.32;;
75496;SDS011;64074;47.540;19.072;2023-03-01T18:25:00;25.50;;;11.80;;
75496;SDS011;64074;47.540;19.072;2023-03-01T18:28:03;18.70;;;10.10;;
75496;SDS011;64074;47.540;19.072;2023-03-01T18:31:07;20.13;;;9.88;;
75496;SDS011;64074;47.540;19.072;2023-03-01T18:34:13;25.58;;;10.02;;
75496;SDS011;64074;47.540;19.072;2023-03-01T18:37:16;17.45;;;9.38;;
75496;SDS011;64074;47.540;19.072;2023-03-01T18:40:21;21.10;;;10.07;;
75496;SDS011;64074;47.540;19.072;2023-03-01T18:43:24;20.30;;;9.83;;
75496;SDS011;64074;47.540;19.072;2023-03-01T18:46:30;19.98;;;9.30;;
75496;SDS011;64074;47.540;19.072;2023-03-01T18:49:34;20.20;;;9.27;;
75496;SDS011;64074;47.540;19.072;2023-03-01T18:52:38;25.83;;;10.32;;
75496;SDS011;64074;47.540;19.072;2023-03-01T18:55:42;19.37;;;10.50;;
75496;SDS011;64074;47.540;19.072;2023-03-01T18:58:45;26.67;;;10.67;;
75496;SDS011;64074;47.540;19.072;2023-03-01T19:01:48;20.98;;;10.70;;
75496;SDS011;64074;47.540;19.072;2023-03-01T19:04:51;24.10;;;12.13;;
75496;SDS011;64074;47.540;19.072;2023-03-01T19:07:53;38.00;;;12.32;;
75496;SDS011;64074;47.540;19.072;2023-03-01T19:10:57;30.47;;;12.63;;
75496;SDS011;64074;47.540;19.072;2023-03-01T19:14:02;25.80;;;12.57;;
75496;SDS011;64074;47.540;19.072;2023-03-01T19:17:06;25.30;;;12.25;;
75496;SDS011;64074;47.540;19.072;2023-03-01T19:20:09;23.23;;;12.60;;
75496;SDS011;64074;47.540;19.072;2023-03-01T19:23:15;22.85;;;12.23;;
75496;SDS011;64074;47.540;19.072;2023-03-01T19:26:20;24.97;;;13.67;;
75496;SDS011;64074;47.540;19.072;2023-03-01T19:29:24;27.93;;;13.47;;
75496;SDS011;64074;47.540;19.072;2023-03-01T19:32:29;29.50;;;14.18;;
75496;SDS011;64074;47.540;19.072;2023-03-01T19:35:33;33.38;;;13.98;;
75496;SDS011;64074;47.540;19.072;2023-03-01T19:38:37;38.45;;;14.25;;
75496;SDS011;64074;47.540;19.072;2023-03-01T19:41:41;32.53;;;15.10;;
75496;SDS011;64074;47.540;19.072;2023-03-01T19:44:45;31.07;;;14.47;;
75496;SDS011;64074;47.540;19.072;2023-03-01T19:47:47;30.45;;;13.65;;
75496;SDS011;64074;47.540;19.072;2023-03-01T19:50:52;32.65;;;15.05;;
75496;SDS011;64074;47.540;19.072;2023-03-01T19:53:55;33.92;;;15.82;;